sensor_id;sensor_type;location;lat;lon;timestamp;P1;durP1;ratioP1;P2;durP2;ratioP2
47337;SDS011;33069;51.970;5.892;2023-04-06T00:01:45;17.00;;;13.45;;
47337;SDS011;33069;51.970;5.892;2023-04-06T00:04:12;23.00;;;14.75;;
47337;SDS011;33069;51.970;5.892;2023-04-06T00:06:37;21.52;;;13.98;;
47337;SDS011;33069;51.970;5.892;2023-04-06T00:09:03;19.60;;;13.82;;
47337;SDS011;33069;51.970;5.892;2023-04-06T00:11:29;19.10;;;12.90;;
47337;SDS011;33069;51.970;5.892;2023-04-06T00:13:55;16.77;;;13.27;;
47337;SDS011;33069;51.970;5.892;2023-04-06T00:16:20;19.73;;;13.23;;
47337;SDS011;33069;51.970;5.892;2023-04-06T00:18:46;21.42;;;14.38;;
47337;SDS011;33069;51.970;5.892;2023-04-06T00:21:12;18.73;;;13.02;;
47337;SDS011;33069;51.970;5.892;2023-04-06T00:23:39;18.63;;;13.70;;
47337;SDS011;33069;51.970;5.892;2023-04-06T00:26:05;21.25;;;13.23;;
47337;SDS011;33069;51.970;5.892;2023-04-06T00:28:31;21.90;;;13.48;;
47337;SDS011;33069;51.970;5.892;2023-04-06T00:30:57;20.15;;;14.02;;
47337;SDS011;33069;51.970;5.892;2023-04-06T00:33:22;19.35;;;13.10;;
47337;SDS011;33069;51.970;5.892;2023-04-06T00:35:49;19.23;;;13.55;;
47337;SDS011;33069;51.970;5.892;2023-04-06T00:38:15;21.05;;;12.55;;
47337;SDS011;33069;51.970;5.892;2023-04-06T00:40:41;19.85;;;14.00;;
47337;SDS011;33069;51.970;5.892;2023-04-06T00:43:09;19.38;;;13.23;;
47337;SDS011;33069;51.970;5.892;2023-04-06T00:45:40;17.83;;;12.93;;
47337;SDS011;33069;51.970;5.892;2023-04-06T00:48:07;21.05;;;14.05;;
47337;SDS011;33069;51.970;5.892;2023-04-06T00:50:34;19.98;;;14.65;;
47337;SDS011;33069;51.970;5.892;2023-04-06T00:53:00;23.42;;;14.82;;
47337;SDS011;33069;51.970;5.892;2023-04-06T00:55:26;23.70;;;14.10;;
47337;SDS011;33069;51.970;5.892;2023-04-06T00:57:52;20.25;;;13.70;;
47337;SDS011;33069;51.970;5.892;2023-04-06T01:00:18;23.52;;;14.25;;
47337;SDS011;33069;51.970;5.892;2023-04-06T01:02:44;19.88;;;13.13;;
47337;SDS011;33069;51.970;5.892;2023-04-06T01:05:11;20.65;;;14.13;;
47337;SDS011;33069;51.970;5.892;2023-04-06T01:07:37;23.25;;;13.60;;
47337;SDS011;33069;51.970;5.892;2023-04-06T01:10:03;21.58;;;14.80;;
47337;SDS011;33069;51.970;5.892;2023-04-06T01:12:29;24.48;;;14.18;;
47337;SDS011;33069;51.970;5.892;2023-04-06T01:14:55;23.27;;;13.75;;
47337;SDS011;33069;51.970;5.892;2023-04-06T01:17:21;19.98;;;13.63;;
47337;SDS011;33069;51.970;5.892;2023-04-06T01:19:47;18.58;;;13.13;;
47337;SDS011;33069;51.970;5.892;2023-04-06T01:22:17;19.70;;;14.32;;
47337;SDS011;33069;51.970;5.892;2023-04-06T01:24:44;24.42;;;15.30;;
47337;SDS011;33069;51.970;5.892;2023-04-06T01:27:09;19.45;;;13.63;;
47337;SDS011;33069;51.970;5.892;2023-04-06T01:29:36;23.60;;;14.50;;
47337;SDS011;33069;51.970;5.892;2023-04-06T01:32:02;23.23;;;15.57;;
47337;SDS011;33069;51.970;5.892;2023-04-06T01:34:27;20.15;;;14.93;;
47337;SDS011;33069;51.970;5.892;2023-04-06T01:36:53;21.83;;;14.88;;
47337;SDS011;33069;51.970;5.892;2023-04-06T01:39:19;21.38;;;14.68;;
47337;SDS011;33069;51.970;5.892;2023-04-06T01:41:45;23.27;;;15.02;;
47337;SDS011;33069;51.970;5.892;2023-04-06T01:44:17;29.77;;;15.63;;
47337;SDS011;33069;51.970;5.892;2023-04-06T01:46:46;20.45;;;14.30;;
47337;SDS011;33069;51.970;5.892;2023-04-06T01:49:12;20.05;;;14.40;;
47337;SDS011;33069;51.970;5.892;2023-04-06T01:51:38;23.25;;;15.07;;
47337;SDS011;33069;51.970;5.892;2023-04-06T01:54:04;21.45;;;15.48;;
47337;SDS011;33069;51.970;5.892;2023-04-06T01:56:30;19.50;;;14.05;;
47337;SDS011;33069;51.970;5.892;2023-04-06T01:58:56;20.80;;;15.07;;
47337;SDS011;33069;51.970;5.892;2023-04-06T02:01:22;23.33;;;14.70;;
47337;SDS011;33069;51.970;5.892;2023-04-06T02:03:47;20.13;;;14.55;;
47337;SDS011;33069;51.970;5.892;2023-04-06T02:06:13;22.55;;;15.23;;
47337;SDS011;33069;51.970;5.892;2023-04-06T02:08:39;24.52;;;15.35;;
47337;SDS011;33069;51.970;5.892;2023-04-06T02:11:04;22.20;;;15.25;;
47337;SDS011;33069;51.970;5.892;2023-04-06T02:13:30;20.60;;;14.75;;
47337;SDS011;33069;51.970;5.892;2023-04-06T02:15:56;22.73;;;14.55;;
47337;SDS011;33069;51.970;5.892;2023-04-06T02:18:22;21.02;;;14.52;;
47337;SDS011;33069;51.970;5.892;2023-04-06T02:20:48;20.00;;;14.05;;
47337;SDS011;33069;51.970;5.892;2023-04-06T02:23:14;24.27;;;15.25;;
47337;SDS011;33069;51.970;5.892;2023-04-06T02:25:40;21.58;;;15.20;;
47337;SDS011;33069;51.970;5.892;2023-04-06T02:28:06;22.65;;;15.13;;
47337;SDS011;33069;51.970;5.892;2023-04-06T02:30:31;20.33;;;15.20;;
47337;SDS011;33069;51.970;5.892;2023-04-06T02:32:58;21.73;;;13.77;;
47337;SDS011;33069;51.970;5.892;2023-04-06T02:35:27;26.10;;;15.00;;
47337;SDS011;33069;51.970;5.892;2023-04-06T02:37:54;21.70;;;14.23;;
47337;SDS011;33069;51.970;5.892;2023-04-06T02:40:19;23.90;;;15.32;;
47337;SDS011;33069;51.970;5.892;2023-04-06T02:42:45;24.00;;;14.65;;
47337;SDS011;33069;51.970;5.892;2023-04-06T02:45:11;21.75;;;15.02;;
47337;SDS011;33069;51.970;5.892;2023-04-06T02:47:37;20.65;;;15.05;;
47337;SDS011;33069;51.970;5.892;2023-04-06T02:50:02;22.70;;;14.60;;
47337;SDS011;33069;51.970;5.892;2023-04-06T02:52:28;22.83;;;15.35;;
47337;SDS011;33069;51.970;5.892;2023-04-06T02:54:54;22.15;;;14.00;;
47337;SDS011;33069;51.970;5.892;2023-04-06T02:57:20;19.40;;;13.90;;
47337;SDS011;33069;51.970;5.892;2023-04-06T02:59:46;22.73;;;14.10;;
47337;SDS011;33069;51.970;5.892;2023-04-06T03:02:11;22.77;;;13.98;;
47337;SDS011;33069;51.970;5.892;2023-04-06T03:04:37;19.45;;;13.98;;
47337;SDS011;33069;51.970;5.892;2023-04-06T03:07:03;19.52;;;13.80;;
47337;SDS011;33069;51.970;5.892;2023-04-06T03:09:28;19.63;;;14.27;;
47337;SDS011;33069;51.970;5.892;2023-04-06T03:11:54;19.20;;;13.90;;
47337;SDS011;33069;51.970;5.892;2023-04-06T03:14:20;26.33;;;14.88;;
47337;SDS011;33069;51.970;5.892;2023-04-06T03:16:47;22.90;;;14.68;;
47337;SDS011;33069;51.970;5.892;2023-04-06T03:19:13;18.45;;;13.43;;
47337;SDS011;33069;51.970;5.892;2023-04-06T03:21:39;24.55;;;15.20;;
47337;SDS011;33069;51.970;5.892;2023-04-06T03:24:05;20.98;;;13.93;;
47337;SDS011;33069;51.970;5.892;2023-04-06T03:26:31;22.50;;;15.13;;
47337;SDS011;33069;51.970;5.892;2023-04-06T03:28:57;21.98;;;14.52;;
47337;SDS011;33069;51.970;5.892;2023-04-06T03:31:22;24.98;;;14.75;;
47337;SDS011;33069;51.970;5.892;2023-04-06T03:33:48;21.45;;;14.05;;
47337;SDS011;33069;51.970;5.892;2023-04-06T03:36:14;22.48;;;14.70;;
47337;SDS011;33069;51.970;5.892;2023-04-06T03:38:39;24.45;;;14.23;;
47337;SDS011;33069;51.970;5.892;2023-04-06T03:41:05;20.52;;;14.02;;
47337;SDS011;33069;51.970;5.892;2023-04-06T03:43:31;27.17;;;14.35;;
47337;SDS011;33069;51.970;5.892;2023-04-06T03:45:57;20.88;;;14.32;;
47337;SDS011;33069;51.970;5.892;2023-04-06T03:48:22;18.42;;;13.32;;
47337;SDS011;33069;51.970;5.892;2023-04-06T03:50:48;23.58;;;14.98;;
47337;SDS011;33069;51.970;5.892;2023-04-06T03:53:14;23.42;;;14.48;;
47337;SDS011;33069;51.970;5.892;2023-04-06T03:55:40;22.05;;;14.23;;
47337;SDS011;33069;51.970;5.892;2023-04-06T03:58:06;23.23;;;14.90;;
47337;SDS011;33069;51.970;5.892;2023-04-06T04:00:31;24.15;;;13.68;;
47337;SDS011;33069;51.970;5.892;2023-04-06T04:02:58;25.10;;;14.70;;
47337;SDS011;33069;51.970;5.892;2023-04-06T04:05:24;23.50;;;14.35;;
47337;SDS011;33069;51.970;5.892;2023-04-06T04:07:51;25.30;;;14.73;;
47337;SDS011;33069;51.970;5.892;2023-04-06T04:10:29;24.65;;;16.02;;
47337;SDS011;33069;51.970;5.892;2023-04-06T04:12:55;26.20;;;15.00;;
47337;SDS011;33069;51.970;5.892;2023-04-06T04:15:21;22.63;;;14.60;;
47337;SDS011;33069;51.970;5.892;2023-04-06T04:17:47;27.58;;;15.00;;
47337;SDS011;33069;51.970;5.892;2023-04-06T04:20:14;20.63;;;14.50;;
47337;SDS011;33069;51.970;5.892;2023-04-06T04:22:41;21.13;;;14.18;;
47337;SDS011;33069;51.970;5.892;2023-04-06T04:25:07;21.23;;;15.75;;
47337;SDS011;33069;51.970;5.892;2023-04-06T04:27:34;25.65;;;16.13;;
47337;SDS011;33069;51.970;5.892;2023-04-06T04:30:00;23.13;;;15.32;;
47337;SDS011;33069;51.970;5.892;2023-04-06T04:32:26;23.00;;;15.60;;
47337;SDS011;33069;51.970;5.892;2023-04-06T04:34:55;25.55;;;15.85;;
47337;SDS011;33069;51.970;5.892;2023-04-06T04:37:21;22.00;;;15.25;;
47337;SDS011;33069;51.970;5.892;2023-04-06T04:39:46;31.20;;;16.15;;
47337;SDS011;33069;51.970;5.892;2023-04-06T04:42:12;30.05;;;15.93;;
47337;SDS011;33069;51.970;5.892;2023-04-06T04:44:38;25.05;;;16.83;;
47337;SDS011;33069;51.970;5.892;2023-04-06T04:47:04;25.25;;;16.13;;
47337;SDS011;33069;51.970;5.892;2023-04-06T04:49:30;23.77;;;15.63;;
47337;SDS011;33069;51.970;5.892;2023-04-06T04:51:56;25.05;;;16.90;;
47337;SDS011;33069;51.970;5.892;2023-04-06T04:54:22;26.25;;;17.15;;
47337;SDS011;33069;51.970;5.892;2023-04-06T04:56:47;27.52;;;17.08;;
47337;SDS011;33069;51.970;5.892;2023-04-06T04:59:13;26.30;;;16.33;;
47337;SDS011;33069;51.970;5.892;2023-04-06T05:01:39;28.38;;;17.20;;
47337;SDS011;33069;51.970;5.892;2023-04-06T05:04:05;27.20;;;16.73;;
47337;SDS011;33069;51.970;5.892;2023-04-06T05:06:30;24.65;;;16.63;;
47337;SDS011;33069;51.970;5.892;2023-04-06T05:08:56;25.00;;;17.23;;
47337;SDS011;33069;51.970;5.892;2023-04-06T05:11:22;26.40;;;17.00;;
47337;SDS011;33069;51.970;5.892;2023-04-06T05:13:47;30.58;;;18.25;;
47337;SDS011;33069;51.970;5.892;2023-04-06T05:16:13;26.38;;;17.15;;
47337;SDS011;33069;51.970;5.892;2023-04-06T05:18:39;23.17;;;16.75;;
47337;SDS011;33069;51.970;5.892;2023-04-06T05:21:05;27.35;;;17.55;;
47337;SDS011;33069;51.970;5.892;2023-04-06T05:23:31;31.17;;;18.25;;
47337;SDS011;33069;51.970;5.892;2023-04-06T05:25:56;29.40;;;19.10;;
47337;SDS011;33069;51.970;5.892;2023-04-06T05:28:22;27.88;;;18.00;;
47337;SDS011;33069;51.970;5.892;2023-04-06T05:30:48;28.42;;;18.55;;
47337;SDS011;33069;51.970;5.892;2023-04-06T05:33:14;29.63;;;18.65;;
47337;SDS011;33069;51.970;5.892;2023-04-06T05:35:40;23.67;;;17.55;;
47337;SDS011;33069;51.970;5.892;2023-04-06T05:38:07;25.13;;;17.63;;
47337;SDS011;33069;51.970;5.892;2023-04-06T05:40:35;24.80;;;17.65;;
47337;SDS011;33069;51.970;5.892;2023-04-06T05:43:03;26.90;;;17.05;;
47337;SDS011;33069;51.970;5.892;2023-04-06T05:45:28;28.50;;;17.83;;
47337;SDS011;33069;51.970;5.892;2023-04-06T05:47:55;24.25;;;17.67;;
47337;SDS011;33069;51.970;5.892;2023-04-06T05:50:20;26.60;;;18.58;;
47337;SDS011;33069;51.970;5.892;2023-04-06T05:52:47;25.83;;;17.92;;
47337;SDS011;33069;51.970;5.892;2023-04-06T05:55:13;24.20;;;17.75;;
47337;SDS011;33069;51.970;5.892;2023-04-06T05:57:38;26.10;;;18.58;;
47337;SDS011;33069;51.970;5.892;2023-04-06T06:00:05;26.60;;;18.80;;
47337;SDS011;33069;51.970;5.892;2023-04-06T06:02:34;28.33;;;18.63;;
47337;SDS011;33069;51.970;5.892;2023-04-06T06:04:59;27.60;;;18.98;;
47337;SDS011;33069;51.970;5.892;2023-04-06T06:07:25;27.65;;;19.10;;
47337;SDS011;33069;51.970;5.892;2023-04-06T06:09:51;32.42;;;19.50;;
47337;SDS011;33069;51.970;5.892;2023-04-06T06:12:17;25.08;;;18.23;;
47337;SDS011;33069;51.970;5.892;2023-04-06T06:14:42;31.45;;;19.48;;
47337;SDS011;33069;51.970;5.892;2023-04-06T06:17:08;28.00;;;20.08;;
47337;SDS011;33069;51.970;5.892;2023-04-06T06:19:34;31.92;;;20.00;;
47337;SDS011;33069;51.970;5.892;2023-04-06T06:22:00;28.55;;;19.10;;
47337;SDS011;33069;51.970;5.892;2023-04-06T06:24:27;28.67;;;19.67;;
47337;SDS011;33069;51.970;5.892;2023-04-06T06:26:53;26.40;;;19.98;;
47337;SDS011;33069;51.970;5.892;2023-04-06T06:29:19;27.83;;;20.02;;
47337;SDS011;33069;51.970;5.892;2023-04-06T06:31:44;35.60;;;19.83;;
47337;SDS011;33069;51.970;5.892;2023-04-06T06:34:10;28.38;;;19.38;;
47337;SDS011;33069;51.970;5.892;2023-04-06T06:36:38;29.75;;;20.27;;
47337;SDS011;33069;51.970;5.892;2023-04-06T06:39:03;34.28;;;21.75;;
47337;SDS011;33069;51.970;5.892;2023-04-06T06:41:29;27.42;;;20.38;;
47337;SDS011;33069;51.970;5.892;2023-04-06T06:43:55;32.03;;;22.25;;
47337;SDS011;33069;51.970;5.892;2023-04-06T06:46:20;27.30;;;20.42;;
47337;SDS011;33069;51.970;5.892;2023-04-06T06:48:46;34.10;;;20.88;;
47337;SDS011;33069;51.970;5.892;2023-04-06T06:51:12;28.15;;;20.15;;
47337;SDS011;33069;51.970;5.892;2023-04-06T06:53:38;28.08;;;20.98;;
47337;SDS011;33069;51.970;5.892;2023-04-06T06:56:03;29.58;;;20.73;;
47337;SDS011;33069;51.970;5.892;2023-04-06T06:58:29;30.50;;;22.00;;
47337;SDS011;33069;51.970;5.892;2023-04-06T07:00:56;29.63;;;20.83;;
47337;SDS011;33069;51.970;5.892;2023-04-06T07:03:22;27.42;;;21.92;;
47337;SDS011;33069;51.970;5.892;2023-04-06T07:05:48;33.17;;;23.77;;
47337;SDS011;33069;51.970;5.892;2023-04-06T07:08:18;34.63;;;22.33;;
47337;SDS011;33069;51.970;5.892;2023-04-06T07:10:44;29.95;;;21.83;;
47337;SDS011;33069;51.970;5.892;2023-04-06T07:13:10;36.45;;;22.80;;
47337;SDS011;33069;51.970;5.892;2023-04-06T07:15:48;31.15;;;23.08;;
47337;SDS011;33069;51.970;5.892;2023-04-06T07:18:33;32.50;;;23.10;;
47337;SDS011;33069;51.970;5.892;2023-04-06T07:20:59;29.40;;;22.55;;
47337;SDS011;33069;51.970;5.892;2023-04-06T07:23:25;32.63;;;21.92;;
47337;SDS011;33069;51.970;5.892;2023-04-06T07:25:51;30.45;;;21.40;;
47337;SDS011;33069;51.970;5.892;2023-04-06T07:28:18;33.15;;;23.35;;
47337;SDS011;33069;51.970;5.892;2023-04-06T07:30:44;32.83;;;22.40;;
47337;SDS011;33069;51.970;5.892;2023-04-06T07:33:10;29.35;;;22.42;;
47337;SDS011;33069;51.970;5.892;2023-04-06T07:35:36;30.90;;;22.85;;
47337;SDS011;33069;51.970;5.892;2023-04-06T07:38:02;29.98;;;22.05;;
47337;SDS011;33069;51.970;5.892;2023-04-06T07:40:28;30.50;;;21.17;;
47337;SDS011;33069;51.970;5.892;2023-04-06T07:42:54;27.80;;;21.40;;
47337;SDS011;33069;51.970;5.892;2023-04-06T07:45:20;25.85;;;20.75;;
47337;SDS011;33069;51.970;5.892;2023-04-06T07:47:45;34.00;;;22.35;;
47337;SDS011;33069;51.970;5.892;2023-04-06T07:50:11;26.77;;;19.95;;
47337;SDS011;33069;51.970;5.892;2023-04-06T07:52:38;30.15;;;22.17;;
47337;SDS011;33069;51.970;5.892;2023-04-06T07:55:04;32.90;;;21.52;;
47337;SDS011;33069;51.970;5.892;2023-04-06T07:57:30;26.83;;;21.27;;
47337;SDS011;33069;51.970;5.892;2023-04-06T07:59:55;33.85;;;21.70;;
47337;SDS011;33069;51.970;5.892;2023-04-06T08:02:21;36.58;;;22.48;;
47337;SDS011;33069;51.970;5.892;2023-04-06T08:04:47;28.25;;;20.90;;
47337;SDS011;33069;51.970;5.892;2023-04-06T08:07:13;31.00;;;21.45;;
47337;SDS011;33069;51.970;5.892;2023-04-06T08:09:39;27.90;;;20.17;;
47337;SDS011;33069;51.970;5.892;2023-04-06T08:12:05;28.65;;;21.17;;
47337;SDS011;33069;51.970;5.892;2023-04-06T08:14:31;30.92;;;22.10;;
47337;SDS011;33069;51.970;5.892;2023-04-06T08:16:56;30.58;;;22.45;;
47337;SDS011;33069;51.970;5.892;2023-04-06T08:22:35;33.03;;;21.00;;
47337;SDS011;33069;51.970;5.892;2023-04-06T08:25:00;40.30;;;23.52;;
47337;SDS011;33069;51.970;5.892;2023-04-06T08:27:26;26.52;;;20.80;;
47337;SDS011;33069;51.970;5.892;2023-04-06T08:29:52;32.13;;;21.42;;
47337;SDS011;33069;51.970;5.892;2023-04-06T08:32:17;28.15;;;21.02;;
47337;SDS011;33069;51.970;5.892;2023-04-06T08:34:43;31.10;;;22.13;;
47337;SDS011;33069;51.970;5.892;2023-04-06T08:37:09;28.92;;;21.70;;
47337;SDS011;33069;51.970;5.892;2023-04-06T08:39:35;26.00;;;20.90;;
47337;SDS011;33069;51.970;5.892;2023-04-06T08:42:01;29.55;;;21.55;;
47337;SDS011;33069;51.970;5.892;2023-04-06T08:44:28;28.38;;;20.08;;
47337;SDS011;33069;51.970;5.892;2023-04-06T08:46:55;32.72;;;22.45;;
47337;SDS011;33069;51.970;5.892;2023-04-06T08:49:21;27.95;;;21.98;;
47337;SDS011;33069;51.970;5.892;2023-04-06T08:51:47;30.88;;;23.08;;
47337;SDS011;33069;51.970;5.892;2023-04-06T08:54:13;29.83;;;21.98;;
47337;SDS011;33069;51.970;5.892;2023-04-06T08:56:39;31.98;;;22.10;;
47337;SDS011;33069;51.970;5.892;2023-04-06T08:59:05;30.33;;;22.05;;
47337;SDS011;33069;51.970;5.892;2023-04-06T09:01:33;32.97;;;22.20;;
47337;SDS011;33069;51.970;5.892;2023-04-06T09:04:02;28.90;;;22.80;;
47337;SDS011;33069;51.970;5.892;2023-04-06T09:06:34;26.02;;;20.27;;
47337;SDS011;33069;51.970;5.892;2023-04-06T09:09:01;30.23;;;21.80;;
47337;SDS011;33069;51.970;5.892;2023-04-06T09:11:27;29.45;;;21.67;;
47337;SDS011;33069;51.970;5.892;2023-04-06T09:13:54;26.23;;;20.80;;
47337;SDS011;33069;51.970;5.892;2023-04-06T09:16:21;32.45;;;23.33;;
47337;SDS011;33069;51.970;5.892;2023-04-06T09:18:48;28.40;;;22.05;;
47337;SDS011;33069;51.970;5.892;2023-04-06T09:21:16;33.13;;;22.48;;
47337;SDS011;33069;51.970;5.892;2023-04-06T09:23:43;32.53;;;22.33;;
47337;SDS011;33069;51.970;5.892;2023-04-06T09:26:13;32.38;;;23.25;;
47337;SDS011;33069;51.970;5.892;2023-04-06T09:28:50;28.52;;;22.75;;
47337;SDS011;33069;51.970;5.892;2023-04-06T09:31:21;30.38;;;23.33;;
47337;SDS011;33069;51.970;5.892;2023-04-06T09:33:48;24.02;;;21.25;;
47337;SDS011;33069;51.970;5.892;2023-04-06T09:36:15;28.73;;;21.30;;
47337;SDS011;33069;51.970;5.892;2023-04-06T09:38:57;26.55;;;22.75;;
47337;SDS011;33069;51.970;5.892;2023-04-06T09:41:24;31.55;;;24.13;;
47337;SDS011;33069;51.970;5.892;2023-04-06T09:46:30;33.17;;;26.02;;
47337;SDS011;33069;51.970;5.892;2023-04-06T09:48:58;37.00;;;25.42;;
47337;SDS011;33069;51.970;5.892;2023-04-06T09:51:26;38.28;;;26.75;;
47337;SDS011;33069;51.970;5.892;2023-04-06T09:53:55;32.47;;;26.17;;
47337;SDS011;33069;51.970;5.892;2023-04-06T09:56:27;35.28;;;26.48;;
47337;SDS011;33069;51.970;5.892;2023-04-06T09:58:56;33.83;;;25.58;;
47337;SDS011;33069;51.970;5.892;2023-04-06T10:01:30;33.75;;;26.15;;
47337;SDS011;33069;51.970;5.892;2023-04-06T10:07:13;35.83;;;25.55;;
47337;SDS011;33069;51.970;5.892;2023-04-06T10:09:40;36.85;;;26.10;;
47337;SDS011;33069;51.970;5.892;2023-04-06T10:12:10;37.83;;;24.20;;
47337;SDS011;33069;51.970;5.892;2023-04-06T10:14:37;33.25;;;25.17;;
47337;SDS011;33069;51.970;5.892;2023-04-06T10:17:04;36.72;;;25.88;;
47337;SDS011;33069;51.970;5.892;2023-04-06T10:22:12;33.90;;;22.50;;
47337;SDS011;33069;51.970;5.892;2023-04-06T10:24:43;32.75;;;21.80;;
47337;SDS011;33069;51.970;5.892;2023-04-06T10:27:09;35.67;;;22.67;;
47337;SDS011;33069;51.970;5.892;2023-04-06T10:29:43;37.78;;;23.63;;
47337;SDS011;33069;51.970;5.892;2023-04-06T10:32:14;30.02;;;22.38;;
47337;SDS011;33069;51.970;5.892;2023-04-06T10:34:39;32.75;;;23.50;;
47337;SDS011;33069;51.970;5.892;2023-04-06T10:37:14;31.48;;;22.05;;
47337;SDS011;33069;51.970;5.892;2023-04-06T10:39:53;36.00;;;23.92;;
47337;SDS011;33069;51.970;5.892;2023-04-06T10:42:23;31.35;;;22.48;;
47337;SDS011;33069;51.970;5.892;2023-04-06T10:45:18;39.05;;;23.42;;
47337;SDS011;33069;51.970;5.892;2023-04-06T10:47:49;31.23;;;22.75;;
47337;SDS011;33069;51.970;5.892;2023-04-06T10:50:17;33.08;;;23.55;;
47337;SDS011;33069;51.970;5.892;2023-04-06T10:52:46;33.60;;;23.02;;
47337;SDS011;33069;51.970;5.892;2023-04-06T10:55:16;31.85;;;22.67;;
47337;SDS011;33069;51.970;5.892;2023-04-06T10:57:42;31.40;;;21.95;;
47337;SDS011;33069;51.970;5.892;2023-04-06T11:00:07;28.85;;;21.02;;
47337;SDS011;33069;51.970;5.892;2023-04-06T11:02:34;31.98;;;21.85;;
47337;SDS011;33069;51.970;5.892;2023-04-06T11:05:02;30.13;;;19.90;;
47337;SDS011;33069;51.970;5.892;2023-04-06T11:07:28;26.85;;;20.85;;
47337;SDS011;33069;51.970;5.892;2023-04-06T11:09:55;26.23;;;21.00;;
47337;SDS011;33069;51.970;5.892;2023-04-06T11:12:25;27.98;;;21.42;;
47337;SDS011;33069;51.970;5.892;2023-04-06T11:14:56;27.42;;;22.42;;
47337;SDS011;33069;51.970;5.892;2023-04-06T11:17:29;29.35;;;20.92;;
47337;SDS011;33069;51.970;5.892;2023-04-06T11:19:57;23.27;;;18.80;;
47337;SDS011;33069;51.970;5.892;2023-04-06T11:22:23;29.02;;;21.58;;
47337;SDS011;33069;51.970;5.892;2023-04-06T11:24:49;24.02;;;20.13;;
47337;SDS011;33069;51.970;5.892;2023-04-06T11:27:15;31.63;;;22.67;;
47337;SDS011;33069;51.970;5.892;2023-04-06T11:29:42;24.33;;;19.77;;
47337;SDS011;33069;51.970;5.892;2023-04-06T11:32:09;28.30;;;20.65;;
47337;SDS011;33069;51.970;5.892;2023-04-06T11:34:35;25.40;;;20.08;;
47337;SDS011;33069;51.970;5.892;2023-04-06T11:37:04;23.23;;;19.90;;
47337;SDS011;33069;51.970;5.892;2023-04-06T11:39:37;23.30;;;19.55;;
47337;SDS011;33069;51.970;5.892;2023-04-06T11:42:07;24.13;;;19.63;;
47337;SDS011;33069;51.970;5.892;2023-04-06T11:47:01;23.48;;;16.23;;
47337;SDS011;33069;51.970;5.892;2023-04-06T11:49:28;21.27;;;17.33;;
47337;SDS011;33069;51.970;5.892;2023-04-06T11:51:55;25.85;;;18.50;;
47337;SDS011;33069;51.970;5.892;2023-04-06T11:57:01;23.33;;;17.10;;
47337;SDS011;33069;51.970;5.892;2023-04-06T11:59:28;19.92;;;16.55;;
47337;SDS011;33069;51.970;5.892;2023-04-06T12:01:55;21.85;;;15.55;;
47337;SDS011;33069;51.970;5.892;2023-04-06T12:04:21;21.27;;;15.95;;
47337;SDS011;33069;51.970;5.892;2023-04-06T12:06:47;20.83;;;16.02;;
47337;SDS011;33069;51.970;5.892;2023-04-06T12:09:13;22.92;;;16.98;;
47337;SDS011;33069;51.970;5.892;2023-04-06T12:11:39;20.95;;;14.23;;
47337;SDS011;33069;51.970;5.892;2023-04-06T12:14:06;15.23;;;13.32;;
47337;SDS011;33069;51.970;5.892;2023-04-06T12:16:32;20.55;;;15.18;;
47337;SDS011;33069;51.970;5.892;2023-04-06T12:19:01;21.10;;;14.98;;
47337;SDS011;33069;51.970;5.892;2023-04-06T12:21:28;20.50;;;14.80;;
47337;SDS011;33069;51.970;5.892;2023-04-06T12:23:55;18.80;;;14.85;;
47337;SDS011;33069;51.970;5.892;2023-04-06T12:26:22;19.58;;;14.77;;
47337;SDS011;33069;51.970;5.892;2023-04-06T12:28:47;21.20;;;14.23;;
47337;SDS011;33069;51.970;5.892;2023-04-06T12:31:17;17.52;;;12.90;;
47337;SDS011;33069;51.970;5.892;2023-04-06T12:36:40;14.85;;;11.15;;
47337;SDS011;33069;51.970;5.892;2023-04-06T12:39:05;16.65;;;10.98;;
47337;SDS011;33069;51.970;5.892;2023-04-06T12:41:31;14.93;;;10.48;;
47337;SDS011;33069;51.970;5.892;2023-04-06T12:43:57;14.93;;;9.75;;
47337;SDS011;33069;51.970;5.892;2023-04-06T12:46:24;14.20;;;10.15;;
47337;SDS011;33069;51.970;5.892;2023-04-06T12:48:50;15.02;;;10.55;;
47337;SDS011;33069;51.970;5.892;2023-04-06T12:51:18;13.23;;;10.27;;
47337;SDS011;33069;51.970;5.892;2023-04-06T12:53:45;14.07;;;10.30;;
47337;SDS011;33069;51.970;5.892;2023-04-06T12:56:14;13.82;;;9.90;;
47337;SDS011;33069;51.970;5.892;2023-04-06T12:58:42;14.68;;;10.30;;
47337;SDS011;33069;51.970;5.892;2023-04-06T13:01:08;15.23;;;8.57;;
47337;SDS011;33069;51.970;5.892;2023-04-06T13:03:34;15.25;;;9.45;;
47337;SDS011;33069;51.970;5.892;2023-04-06T13:09:17;13.07;;;9.30;;
47337;SDS011;33069;51.970;5.892;2023-04-06T13:11:42;13.27;;;8.98;;
47337;SDS011;33069;51.970;5.892;2023-04-06T13:14:08;15.18;;;9.60;;
47337;SDS011;33069;51.970;5.892;2023-04-06T13:16:34;14.25;;;9.65;;
47337;SDS011;33069;51.970;5.892;2023-04-06T13:19:01;15.65;;;10.25;;
47337;SDS011;33069;51.970;5.892;2023-04-06T13:21:27;15.23;;;9.98;;
47337;SDS011;33069;51.970;5.892;2023-04-06T13:23:53;15.05;;;10.80;;
47337;SDS011;33069;51.970;5.892;2023-04-06T13:26:19;13.35;;;9.82;;
47337;SDS011;33069;51.970;5.892;2023-04-06T13:28:44;14.10;;;10.10;;
47337;SDS011;33069;51.970;5.892;2023-04-06T13:31:10;15.82;;;11.43;;
47337;SDS011;33069;51.970;5.892;2023-04-06T13:33:36;13.80;;;10.20;;
47337;SDS011;33069;51.970;5.892;2023-04-06T13:36:02;16.50;;;9.93;;
47337;SDS011;33069;51.970;5.892;2023-04-06T13:38:28;16.85;;;11.18;;
47337;SDS011;33069;51.970;5.892;2023-04-06T13:40:54;15.07;;;11.45;;
47337;SDS011;33069;51.970;5.892;2023-04-06T13:43:21;14.88;;;11.02;;
47337;SDS011;33069;51.970;5.892;2023-04-06T13:45:50;16.08;;;11.23;;
47337;SDS011;33069;51.970;5.892;2023-04-06T13:48:18;19.58;;;12.98;;
47337;SDS011;33069;51.970;5.892;2023-04-06T13:50:44;17.23;;;12.23;;
47337;SDS011;33069;51.970;5.892;2023-04-06T13:53:10;19.85;;;12.35;;
47337;SDS011;33069;51.970;5.892;2023-04-06T13:58:59;21.02;;;12.98;;
47337;SDS011;33069;51.970;5.892;2023-04-06T14:01:25;19.55;;;12.65;;
47337;SDS011;33069;51.970;5.892;2023-04-06T14:03:51;16.08;;;12.30;;
47337;SDS011;33069;51.970;5.892;2023-04-06T14:06:17;17.90;;;13.32;;
47337;SDS011;33069;51.970;5.892;2023-04-06T14:08:43;22.45;;;12.88;;
47337;SDS011;33069;51.970;5.892;2023-04-06T14:11:12;23.67;;;14.98;;
47337;SDS011;33069;51.970;5.892;2023-04-06T14:13:38;20.05;;;14.82;;
47337;SDS011;33069;51.970;5.892;2023-04-06T14:16:05;23.05;;;14.85;;
47337;SDS011;33069;51.970;5.892;2023-04-06T14:18:32;19.98;;;13.55;;
47337;SDS011;33069;51.970;5.892;2023-04-06T14:20:59;20.92;;;15.13;;
47337;SDS011;33069;51.970;5.892;2023-04-06T14:23:28;19.77;;;14.13;;
47337;SDS011;33069;51.970;5.892;2023-04-06T14:26:01;18.83;;;13.48;;
47337;SDS011;33069;51.970;5.892;2023-04-06T14:28:34;23.88;;;14.32;;
47337;SDS011;33069;51.970;5.892;2023-04-06T14:31:01;20.35;;;14.70;;
47337;SDS011;33069;51.970;5.892;2023-04-06T14:33:34;22.93;;;15.87;;
47337;SDS011;33069;51.970;5.892;2023-04-06T14:36:02;22.58;;;15.15;;
47337;SDS011;33069;51.970;5.892;2023-04-06T14:38:28;21.70;;;14.18;;
47337;SDS011;33069;51.970;5.892;2023-04-06T14:40:55;22.30;;;14.77;;
47337;SDS011;33069;51.970;5.892;2023-04-06T14:43:21;23.02;;;15.40;;
47337;SDS011;33069;51.970;5.892;2023-04-06T14:45:46;21.65;;;15.55;;